createdAt,value
2022-11-09T00:02:13.864Z,40.70
2022-11-09T00:04:43.524Z,40.60
2022-11-09T00:07:11.331Z,40.60
2022-11-09T00:09:42.387Z,40.60
2022-11-09T00:12:13.810Z,40.70
2022-11-09T00:14:42.663Z,40.80
2022-11-09T00:17:11.794Z,40.70
2022-11-09T00:19:41.946Z,40.70
2022-11-09T00:22:12.598Z,40.70
2022-11-09T00:24:44.343Z,40.70
2022-11-09T00:27:17.632Z,40.70
2022-11-09T00:29:46.970Z,40.70
2022-11-09T00:32:17.231Z,41.30
2022-11-09T00:34:50.063Z,40.70
2022-11-09T00:37:20.598Z,40.70
2022-11-09T00:39:49.441Z,40.70
2022-11-09T00:42:17.409Z,40.70
2022-11-09T00:44:48.977Z,40.70
2022-11-09T00:47:20.296Z,40.70
2022-11-09T00:49:57.954Z,40.70
2022-11-09T00:52:27.633Z,40.70
2022-11-09T00:54:55.908Z,40.60
2022-11-09T00:57:26.670Z,40.70
2022-11-09T00:59:57.121Z,40.70
2022-11-09T01:02:27.903Z,40.60
2022-11-09T01:04:57.935Z,40.60
2022-11-09T01:07:27.454Z,40.50
2022-11-09T01:09:58.692Z,40.60
2022-11-09T01:12:28.365Z,40.60
2022-11-09T01:14:59.923Z,40.60
2022-11-09T01:17:27.842Z,40.50
2022-11-09T01:19:55.692Z,40.60
2022-11-09T01:22:25.024Z,40.50
2022-11-09T01:24:54.515Z,40.50
2022-11-09T01:27:20.606Z,40.50
2022-11-09T01:29:54.523Z,40.50
2022-11-09T01:32:26.424Z,40.60
2022-11-09T01:34:57.096Z,40.50
2022-11-09T01:37:29.703Z,40.60
2022-11-09T01:40:00.281Z,40.60
2022-11-09T01:42:36.759Z,40.50
2022-11-09T01:45:30.641Z,40.70
2022-11-09T01:48:18.852Z,40.50
2022-11-09T01:50:59.066Z,40.60
2022-11-09T01:53:30.903Z,40.50
2022-11-09T01:56:02.814Z,40.50
2022-11-09T01:58:38.944Z,40.50
2022-11-09T02:01:12.721Z,40.50
2022-11-09T02:03:56.576Z,40.60
2022-11-09T02:06:31.019Z,40.60
2022-11-09T02:09:26.951Z,40.60
2022-11-09T02:11:57.477Z,40.60
2022-11-09T02:14:28.354Z,40.60
2022-11-09T02:17:00.108Z,40.60
2022-11-09T02:19:29.148Z,40.60
2022-11-09T02:22:00.865Z,40.60
2022-11-09T02:24:28.834Z,40.50
2022-11-09T02:26:57.399Z,40.60
2022-11-09T02:29:37.844Z,40.70
2022-11-09T02:32:17.431Z,40.60
2022-11-09T02:34:48.726Z,40.60
2022-11-09T02:37:28.392Z,40.60
2022-11-09T02:40:00.122Z,40.60
2022-11-09T02:42:28.178Z,40.60
2022-11-09T02:45:01.592Z,40.50
2022-11-09T02:47:33.456Z,40.50
2022-11-09T02:50:04.919Z,40.50
2022-11-09T02:52:35.704Z,40.50
2022-11-09T02:55:05.226Z,40.50
2022-11-09T02:57:34.704Z,40.60
2022-11-09T03:00:05.572Z,40.50
2022-11-09T03:02:35.870Z,40.60
2022-11-09T03:05:08.725Z,40.50
2022-11-09T03:07:38.844Z,40.50
2022-11-09T03:10:08.940Z,40.50
2022-11-09T03:12:41.274Z,40.50
2022-11-09T03:15:13.243Z,40.40
2022-11-09T03:17:42.345Z,40.50
2022-11-09T03:20:13.265Z,40.40
2022-11-09T03:22:45.125Z,40.50
2022-11-09T03:25:16.801Z,40.50
2022-11-09T03:27:45.835Z,40.50
2022-11-09T03:30:15.137Z,40.50
2022-11-09T03:32:50.280Z,40.40
2022-11-09T03:35:18.852Z,40.50
2022-11-09T03:37:49.893Z,40.40
2022-11-09T03:40:21.738Z,40.50
2022-11-09T03:42:52.410Z,40.50
2022-11-09T03:45:24.710Z,40.50
2022-11-09T03:47:55.444Z,40.50
2022-11-09T03:50:25.411Z,40.50
2022-11-09T03:52:56.272Z,40.50
2022-11-09T03:55:24.850Z,40.50
2022-11-09T03:57:54.275Z,40.50
2022-11-09T04:00:22.538Z,40.50
2022-11-09T04:02:55.110Z,40.50
2022-11-09T04:05:23.755Z,40.40
2022-11-09T04:08:00.297Z,40.40
2022-11-09T04:10:31.409Z,40.50
2022-11-09T04:12:57.854Z,40.40
2022-11-09T04:15:28.015Z,40.40
2022-11-09T04:18:02.264Z,40.40
2022-11-09T04:20:31.806Z,40.50
2022-11-09T04:23:01.869Z,40.40
2022-11-09T04:25:40.707Z,40.50
2022-11-09T04:28:11.988Z,40.50
2022-11-09T04:30:44.187Z,40.40
2022-11-09T04:33:14.652Z,40.50
2022-11-09T04:35:45.411Z,40.50
2022-11-09T04:38:18.896Z,40.40
2022-11-09T04:40:46.697Z,40.40
2022-11-09T04:43:16.759Z,40.40
2022-11-09T04:45:47.742Z,40.40
2022-11-09T04:48:17.504Z,40.40
2022-11-09T04:50:47.431Z,40.40
2022-11-09T04:53:18.648Z,40.40
2022-11-09T04:55:45.930Z,40.40
2022-11-09T04:58:17.263Z,40.40
2022-11-09T05:00:48.919Z,40.40
2022-11-09T05:03:18.868Z,40.30
2022-11-09T05:05:50.573Z,40.30
2022-11-09T05:08:22.334Z,40.50
2022-11-09T05:10:52.882Z,40.40
2022-11-09T05:13:25.208Z,40.40
2022-11-09T05:15:52.312Z,40.40
2022-11-09T05:18:20.769Z,40.40
2022-11-09T05:20:52.123Z,40.50
2022-11-09T05:23:41.181Z,40.40
2022-11-09T05:26:12.688Z,40.40
2022-11-09T05:28:42.132Z,40.40
2022-11-09T05:31:15.839Z,40.40
2022-11-09T05:33:46.306Z,40.40
2022-11-09T05:36:18.215Z,40.40
2022-11-09T05:38:48.564Z,40.40
2022-11-09T05:41:19.503Z,41.10
2022-11-09T05:43:50.489Z,40.40
2022-11-09T05:46:44.196Z,40.30
2022-11-09T05:49:15.958Z,40.40
2022-11-09T05:51:46.504Z,40.40
2022-11-09T05:54:16.908Z,40.30
2022-11-09T05:56:45.094Z,40.40
2022-11-09T05:59:14.991Z,40.40
2022-11-09T06:01:46.109Z,40.30
2022-11-09T06:04:16.737Z,40.60
2022-11-09T06:06:45.672Z,40.60
2022-11-09T06:09:18.808Z,40.50
2022-11-09T06:11:46.063Z,40.40
2022-11-09T06:14:17.286Z,40.40
2022-11-09T06:16:47.789Z,40.40
2022-11-09T06:19:20.066Z,40.40
2022-11-09T06:21:48.853Z,40.30
2022-11-09T06:24:18.791Z,40.40
2022-11-09T06:26:48.861Z,40.40
2022-11-09T06:29:18.945Z,40.50
2022-11-09T06:31:50.946Z,40.50
2022-11-09T06:34:22.257Z,40.60
2022-11-09T06:36:51.373Z,40.60
2022-11-09T06:39:18.714Z,40.60
2022-11-09T06:41:49.495Z,40.50
2022-11-09T06:44:21.358Z,40.60
2022-11-09T06:46:51.952Z,40.60
2022-11-09T06:49:22.105Z,40.70
2022-11-09T06:51:54.894Z,40.60
2022-11-09T06:54:26.218Z,40.70
2022-11-09T06:56:59.873Z,40.90
2022-11-09T06:59:31.176Z,40.80
2022-11-09T07:02:04.759Z,40.80
2022-11-09T07:04:33.547Z,40.80
2022-11-09T07:07:03.362Z,40.80
2022-11-09T07:09:34.255Z,40.80
2022-11-09T07:12:05.995Z,40.70
2022-11-09T07:14:37.999Z,40.70
2022-11-09T07:17:10.721Z,40.80
2022-11-09T07:19:47.638Z,40.80
2022-11-09T07:22:14.659Z,40.90
2022-11-09T07:24:43.039Z,40.90
2022-11-09T07:27:12.299Z,40.90
2022-11-09T07:29:46.149Z,41.00
2022-11-09T07:32:15.014Z,41.00
2022-11-09T07:34:43.653Z,41.00
2022-11-09T07:37:13.381Z,41.00
2022-11-09T07:39:44.774Z,41.10
2022-11-09T07:42:19.876Z,41.10
2022-11-09T07:44:50.399Z,41.10
2022-11-09T07:47:21.755Z,41.10
2022-11-09T07:49:53.028Z,41.10
2022-11-09T07:52:23.208Z,41.10
2022-11-09T07:55:06.601Z,41.20
2022-11-09T07:57:36.345Z,41.30
2022-11-09T08:00:12.776Z,41.30
2022-11-09T08:02:39.562Z,41.30
2022-11-09T08:05:11.384Z,41.30
2022-11-09T08:07:41.441Z,41.40
2022-11-09T08:10:13.669Z,41.40
2022-11-09T08:12:45.008Z,41.50
2022-11-09T08:15:14.886Z,41.50
2022-11-09T08:17:44.094Z,41.50
2022-11-09T08:20:18.120Z,41.50
2022-11-09T08:22:51.182Z,41.50
2022-11-09T08:25:20.405Z,41.60
2022-11-09T08:27:51.626Z,41.60
2022-11-09T08:30:24.182Z,41.70
2022-11-09T08:32:57.313Z,41.80
2022-11-09T08:35:29.795Z,41.80
2022-11-09T08:38:07.435Z,42.00
2022-11-09T08:40:36.170Z,41.90
2022-11-09T08:43:11.006Z,42.00
2022-11-09T08:45:42.808Z,42.00
2022-11-09T08:48:10.065Z,42.00
2022-11-09T08:50:38.362Z,42.00
2022-11-09T08:53:09.635Z,42.20
2022-11-09T08:55:48.392Z,42.20
2022-11-09T08:58:21.058Z,42.10
2022-11-09T09:00:51.526Z,42.20
2022-11-09T09:03:22.393Z,42.20
2022-11-09T09:05:50.637Z,42.20
2022-11-09T09:08:23.589Z,42.20
2022-11-09T09:10:52.941Z,42.20
2022-11-09T09:13:23.558Z,42.30
2022-11-09T09:15:53.690Z,42.20
2022-11-09T09:18:24.307Z,42.20
2022-11-09T09:20:56.832Z,42.30
2022-11-09T09:23:27.759Z,42.20
2022-11-09T09:25:58.786Z,42.30
2022-11-09T09:28:25.028Z,42.30
2022-11-09T09:30:55.279Z,42.30
2022-11-09T09:33:25.728Z,42.30
2022-11-09T09:35:57.773Z,42.30
2022-11-09T09:38:32.051Z,42.40
2022-11-09T09:41:04.856Z,42.30
2022-11-09T09:43:47.171Z,42.40
2022-11-09T09:46:36.201Z,42.50
2022-11-09T09:49:35.639Z,42.50
2022-11-09T09:52:23.958Z,42.60
2022-11-09T09:55:18.659Z,42.60
2022-11-09T09:58:04.157Z,42.60
2022-11-09T10:00:35.785Z,42.70
2022-11-09T10:03:07.850Z,42.70
2022-11-09T10:05:47.402Z,42.70
2022-11-09T10:08:37.620Z,42.70
2022-11-09T10:11:33.717Z,42.80
2022-11-09T10:14:48.299Z,42.80
2022-11-09T10:17:38.983Z,42.80
2022-11-09T10:20:32.527Z,42.90
2022-11-09T10:23:38.332Z,42.90
2022-11-09T10:26:21.730Z,42.90
2022-11-09T10:29:14.915Z,42.80
2022-11-09T10:32:25.381Z,42.80
2022-11-09T10:35:16.891Z,42.80
2022-11-09T10:37:51.075Z,42.90
2022-11-09T10:41:12.428Z,42.90
2022-11-09T10:43:40.497Z,42.90
2022-11-09T10:46:08.392Z,42.90
2022-11-09T10:48:42.615Z,42.90
2022-11-09T10:51:28.589Z,42.90
2022-11-09T10:54:24.015Z,42.90
2022-11-09T10:57:07.147Z,43.10
2022-11-09T10:59:45.089Z,43.10
2022-11-09T11:02:28.864Z,43.10
2022-11-09T11:05:10.504Z,43.20
2022-11-09T11:07:40.148Z,43.20
2022-11-09T11:10:16.966Z,43.30
2022-11-09T11:12:58.334Z,43.30
2022-11-09T11:16:00.109Z,43.30
2022-11-09T11:18:32.565Z,43.30
2022-11-09T11:21:19.309Z,43.40
2022-11-09T11:24:12.599Z,43.50
2022-11-09T11:26:59.697Z,43.50
2022-11-09T11:29:55.536Z,43.60
2022-11-09T11:32:25.358Z,43.60
2022-11-09T11:35:00.237Z,43.60
2022-11-09T11:37:54.460Z,43.60
2022-11-09T11:41:04.671Z,43.60
2022-11-09T11:43:48.720Z,43.70
2022-11-09T11:46:41.470Z,43.60
2022-11-09T11:49:43.095Z,43.70
2022-11-09T11:52:41.630Z,43.70
2022-11-09T11:55:46.611Z,43.80
2022-11-09T11:58:34.137Z,43.70
2022-11-09T12:01:20.486Z,43.80
2022-11-09T12:04:03.749Z,43.80
2022-11-09T12:06:59.648Z,43.80
2022-11-09T12:09:55.511Z,43.80
2022-11-09T12:12:29.562Z,43.80
2022-11-09T12:15:25.244Z,43.90
2022-11-09T12:18:03.489Z,43.80
2022-11-09T12:21:02.866Z,43.80
2022-11-09T12:23:56.890Z,43.90
2022-11-09T12:26:45.748Z,43.80
2022-11-09T12:29:22.585Z,43.80
2022-11-09T12:31:57.903Z,43.90
2022-11-09T12:34:39.380Z,43.90
2022-11-09T12:37:35.488Z,43.90
2022-11-09T12:40:14.437Z,43.90
2022-11-09T12:42:53.609Z,43.90
2022-11-09T12:45:31.453Z,43.90
2022-11-09T12:48:20.766Z,44.00
2022-11-09T12:50:51.326Z,44.00
2022-11-09T12:53:23.014Z,44.00
2022-11-09T12:56:14.251Z,44.00
2022-11-09T12:58:42.222Z,44.00
2022-11-09T13:01:33.085Z,44.00
2022-11-09T13:04:04.341Z,44.00
2022-11-09T13:06:33.488Z,44.00
2022-11-09T13:09:43.968Z,44.00
2022-11-09T13:12:18.801Z,44.00
2022-11-09T13:14:47.721Z,44.10
2022-11-09T13:17:22.090Z,44.00
2022-11-09T13:19:53.219Z,44.00
2022-11-09T13:22:25.430Z,44.00
2022-11-09T13:25:01.394Z,44.00
2022-11-09T13:27:49.932Z,44.00
2022-11-09T13:30:29.569Z,44.00
2022-11-09T13:33:39.849Z,44.00
2022-11-09T13:36:07.357Z,44.00
2022-11-09T13:38:35.969Z,44.00
2022-11-09T13:41:34.180Z,44.00
2022-11-09T13:44:32.727Z,44.00
2022-11-09T13:47:06.530Z,44.00
2022-11-09T13:49:49.672Z,44.00
2022-11-09T13:52:51.089Z,44.00
2022-11-09T13:55:45.161Z,44.00
2022-11-09T13:58:30.124Z,44.00
2022-11-09T14:01:01.114Z,44.10
2022-11-09T14:03:31.720Z,44.10
2022-11-09T14:06:02.621Z,44.10
2022-11-09T14:08:40.723Z,44.20
2022-11-09T14:11:08.674Z,44.20
2022-11-09T14:13:46.505Z,44.30
2022-11-09T14:16:34.969Z,44.30
2022-11-09T14:19:31.219Z,44.30
2022-11-09T14:22:04.728Z,44.40
2022-11-09T14:24:33.082Z,44.40
2022-11-09T14:27:08.940Z,44.40
2022-11-09T14:29:38.893Z,44.50
2022-11-09T14:32:30.218Z,44.50
2022-11-09T14:35:24.445Z,44.50
2022-11-09T14:37:55.997Z,44.50
2022-11-09T14:40:30.758Z,44.50
2022-11-09T14:43:27.039Z,44.50
2022-11-09T14:46:06.687Z,44.50
2022-11-09T14:48:44.875Z,44.50
2022-11-09T14:51:16.977Z,44.50
2022-11-09T14:53:46.825Z,44.60
2022-11-09T14:56:22.267Z,44.60
2022-11-09T14:58:52.997Z,44.60
2022-11-09T15:01:20.821Z,44.60
2022-11-09T15:04:24.184Z,44.60
2022-11-09T15:07:03.559Z,44.60
2022-11-09T15:09:49.562Z,44.60
2022-11-09T15:12:22.894Z,44.60
2022-11-09T15:15:03.967Z,44.60
2022-11-09T15:17:41.692Z,44.70
2022-11-09T15:20:14.751Z,44.60
2022-11-09T15:22:52.239Z,44.60
2022-11-09T15:25:38.107Z,44.60
2022-11-09T15:28:16.403Z,44.70
2022-11-09T15:30:58.727Z,44.60
2022-11-09T15:33:36.977Z,44.70
2022-11-09T15:36:45.035Z,44.70
2022-11-09T15:39:22.081Z,44.60
2022-11-09T15:41:54.103Z,44.60
2022-11-09T15:44:23.987Z,44.50
2022-11-09T15:46:53.936Z,44.60
2022-11-09T15:49:25.786Z,44.50
2022-11-09T15:51:56.396Z,44.60
2022-11-09T15:54:28.331Z,44.50
2022-11-09T15:56:58.337Z,44.60
2022-11-09T15:59:29.073Z,44.60
2022-11-09T16:01:57.500Z,44.50
2022-11-09T16:04:25.518Z,44.50
2022-11-09T16:06:55.726Z,44.50
2022-11-09T16:09:25.166Z,44.50
2022-11-09T16:11:54.202Z,44.50
2022-11-09T16:14:22.694Z,44.50
2022-11-09T16:16:50.353Z,44.50
2022-11-09T16:19:21.087Z,44.50
2022-11-09T16:21:53.793Z,44.50
2022-11-09T16:24:23.096Z,44.50
2022-11-09T16:26:52.590Z,44.50
2022-11-09T16:29:27.310Z,44.50
2022-11-09T16:32:01.584Z,44.50
2022-11-09T16:34:30.800Z,44.50
2022-11-09T16:37:03.537Z,44.50
2022-11-09T16:39:33.903Z,44.50
2022-11-09T16:42:12.210Z,44.50
2022-11-09T16:44:43.610Z,44.50
2022-11-09T16:47:19.012Z,44.60
2022-11-09T16:49:47.549Z,44.60
2022-11-09T16:52:17.049Z,44.60
2022-11-09T16:54:45.711Z,44.60
2022-11-09T16:57:14.245Z,44.60
2022-11-09T16:59:44.318Z,44.60
2022-11-09T17:02:12.632Z,44.60
2022-11-09T17:04:40.983Z,44.60
2022-11-09T17:07:10.880Z,44.60
2022-11-09T17:09:41.231Z,44.60
2022-11-09T17:12:12.788Z,44.60
2022-11-09T17:14:41.919Z,44.60
2022-11-09T17:17:11.265Z,44.60
2022-11-09T17:19:42.511Z,44.60
2022-11-09T17:22:08.669Z,44.60
2022-11-09T17:24:38.111Z,44.60
2022-11-09T17:27:15.363Z,44.60
2022-11-09T17:29:48.603Z,44.60
2022-11-09T17:32:27.377Z,44.60
2022-11-09T17:34:56.617Z,44.60
2022-11-09T17:37:26.985Z,44.60
2022-11-09T17:39:55.395Z,44.70
2022-11-09T17:42:23.151Z,44.60
2022-11-09T17:44:51.472Z,44.60
2022-11-09T17:47:21.676Z,44.60
2022-11-09T17:49:51.035Z,44.60
2022-11-09T17:52:18.692Z,44.70
2022-11-09T17:54:49.586Z,44.60
2022-11-09T17:57:18.749Z,44.50
2022-11-09T17:59:48.318Z,44.50
2022-11-09T18:02:19.870Z,44.60
2022-11-09T18:04:48.505Z,44.50
2022-11-09T18:07:19.652Z,45.10
2022-11-09T18:09:48.898Z,44.30
2022-11-09T18:12:18.881Z,44.20
2022-11-09T18:14:46.838Z,44.20
2022-11-09T18:17:16.622Z,44.20
2022-11-09T18:19:45.529Z,44.10
2022-11-09T18:22:13.837Z,44.10
2022-11-09T18:24:44.619Z,44.10
2022-11-09T18:27:13.697Z,44.10
2022-11-09T18:29:43.362Z,44.10
2022-11-09T18:32:11.410Z,44.70
2022-11-09T18:34:41.800Z,44.00
2022-11-09T18:37:08.404Z,44.00
2022-11-09T18:39:39.467Z,44.00
2022-11-09T18:42:10.097Z,44.00
2022-11-09T18:44:41.153Z,44.00
2022-11-09T18:47:11.004Z,43.90
2022-11-09T18:49:38.586Z,43.90
2022-11-09T18:52:08.648Z,43.90
2022-11-09T18:54:38.147Z,43.90
2022-11-09T18:57:05.465Z,43.90
2022-11-09T18:59:33.489Z,43.80
2022-11-09T19:02:01.832Z,43.80
2022-11-09T19:04:30.726Z,43.80
2022-11-09T19:06:59.852Z,43.70
2022-11-09T19:09:31.197Z,43.80
2022-11-09T19:12:01.549Z,43.70
2022-11-09T19:14:29.961Z,43.80
2022-11-09T19:17:01.409Z,43.70
2022-11-09T19:19:31.042Z,43.70
2022-11-09T19:21:58.354Z,44.30
2022-11-09T19:24:29.422Z,43.70
2022-11-09T19:26:58.801Z,43.70
2022-11-09T19:29:30.798Z,43.70
2022-11-09T19:31:59.461Z,43.60
2022-11-09T19:34:30.218Z,43.60
2022-11-09T19:36:59.556Z,43.60
2022-11-09T19:39:34.162Z,43.60
2022-11-09T19:42:02.687Z,43.60
2022-11-09T19:44:32.618Z,43.50
2022-11-09T19:47:01.348Z,43.50
2022-11-09T19:49:29.527Z,44.20
2022-11-09T19:51:58.493Z,43.40
2022-11-09T19:54:26.415Z,43.50
2022-11-09T19:56:54.396Z,43.50
2022-11-09T19:59:23.905Z,43.50
2022-11-09T20:01:52.598Z,43.50
2022-11-09T20:04:23.047Z,43.40
2022-11-09T20:06:52.471Z,43.60
2022-11-09T20:09:19.822Z,43.50
2022-11-09T20:12:06.165Z,43.50
2022-11-09T20:14:36.179Z,43.50
2022-11-09T20:17:08.899Z,43.50
2022-11-09T20:19:40.019Z,43.50
2022-11-09T20:22:11.990Z,43.50
2022-11-09T20:24:40.696Z,43.50
2022-11-09T20:27:09.030Z,43.40
2022-11-09T20:29:38.128Z,43.40
2022-11-09T20:32:12.024Z,43.40
2022-11-09T20:34:40.934Z,43.50
2022-11-09T20:37:08.940Z,42.90
2022-11-09T20:39:40.450Z,43.40
2022-11-09T20:42:09.486Z,43.40
2022-11-09T20:44:37.057Z,43.40
2022-11-09T20:47:05.026Z,43.40
2022-11-09T20:49:34.285Z,43.30
2022-11-09T20:52:01.019Z,43.40
2022-11-09T20:54:29.157Z,43.40
2022-11-09T20:56:58.953Z,43.40
2022-11-09T20:59:30.382Z,43.30
2022-11-09T21:01:57.999Z,43.30
2022-11-09T21:04:26.206Z,44.00
2022-11-09T21:06:54.362Z,43.30
2022-11-09T21:09:21.734Z,43.30
2022-11-09T21:12:08.309Z,43.30
2022-11-09T21:14:36.476Z,43.30
2022-11-09T21:17:03.468Z,43.30
2022-11-09T21:19:30.643Z,43.30
2022-11-09T21:21:59.136Z,43.30
2022-11-09T21:24:47.437Z,43.20
2022-11-09T21:27:33.539Z,43.20
2022-11-09T21:30:02.283Z,43.90
2022-11-09T21:32:32.365Z,43.20
2022-11-09T21:35:01.100Z,43.20
2022-11-09T21:37:28.127Z,43.20
2022-11-09T21:39:59.018Z,43.20
2022-11-09T21:42:27.357Z,43.30
2022-11-09T21:44:55.080Z,43.20
2022-11-09T21:47:23.778Z,43.20
2022-11-09T21:49:50.968Z,43.30
2022-11-09T21:52:18.962Z,43.30
2022-11-09T21:54:49.704Z,43.20
2022-11-09T21:57:17.055Z,43.20
2022-11-09T21:59:48.932Z,43.20
2022-11-09T22:02:20.587Z,43.20
2022-11-09T22:04:49.106Z,43.20
2022-11-09T22:07:16.037Z,43.20
2022-11-09T22:10:08.871Z,43.10
2022-11-09T22:12:52.264Z,43.20
2022-11-09T22:15:40.286Z,43.10
2022-11-09T22:18:28.446Z,43.10
2022-11-09T22:20:56.996Z,43.20
2022-11-09T22:23:24.140Z,43.20
2022-11-09T22:25:52.032Z,43.20
2022-11-09T22:28:20.915Z,43.80
2022-11-09T22:30:52.620Z,43.10
2022-11-09T22:33:27.065Z,43.10
2022-11-09T22:35:58.166Z,43.10
2022-11-09T22:38:27.415Z,43.20
2022-11-09T22:40:58.994Z,43.10
2022-11-09T22:43:27.540Z,43.10
2022-11-09T22:45:58.708Z,43.10
2022-11-09T22:48:29.135Z,43.10
2022-11-09T22:50:57.379Z,43.10
2022-11-09T22:53:28.116Z,43.10
2022-11-09T22:55:58.568Z,43.10
2022-11-09T22:58:30.913Z,43.10
2022-11-09T23:01:16.752Z,43.00
2022-11-09T23:03:46.348Z,43.10
2022-11-09T23:06:20.591Z,43.10
2022-11-09T23:08:51.842Z,43.10
2022-11-09T23:11:25.151Z,43.10
2022-11-09T23:13:54.629Z,43.10
2022-11-09T23:16:24.338Z,43.10
2022-11-09T23:18:56.626Z,43.10
2022-11-09T23:21:31.635Z,43.10
2022-11-09T23:24:03.084Z,43.10
2022-11-09T23:26:33.736Z,43.10
2022-11-09T23:29:02.011Z,43.10
2022-11-09T23:31:29.996Z,43.00
2022-11-09T23:34:00.066Z,43.00
2022-11-09T23:36:27.828Z,43.00
2022-11-09T23:38:56.550Z,43.10
2022-11-09T23:41:26.540Z,43.10
2022-11-09T23:43:57.381Z,43.10
2022-11-09T23:46:23.975Z,43.10
2022-11-09T23:48:53.085Z,43.10
2022-11-09T23:51:21.220Z,43.10
2022-11-09T23:53:48.147Z,43.10
2022-11-09T23:56:15.468Z,43.10
2022-11-09T23:58:45.870Z,43.10
